sensor_id;sensor_type;location;lat;lon;timestamp;pressure;altitude;pressure_sealevel;temperature;humidity
3960;BME280;1994;48.640;8.894;2023-02-14T00:00:44;97868.31;;;1.45;100.00
3960;BME280;1994;48.640;8.894;2023-02-14T00:03:10;97880.69;;;1.40;100.00
3960;BME280;1994;48.640;8.894;2023-02-14T00:05:37;97861.06;;;1.40;100.00
3960;BME280;1994;48.640;8.894;2023-02-14T00:08:03;97861.59;;;1.44;100.00
3960;BME280;1994;48.640;8.894;2023-02-14T00:10:31;97858.41;;;1.42;100.00
3960;BME280;1994;48.640;8.894;2023-02-14T00:12:57;97858.66;;;1.39;100.00
3960;BME280;1994;48.640;8.894;2023-02-14T00:15:23;97862.94;;;1.29;100.00
3960;BME280;1994;48.640;8.894;2023-02-14T00:17:56;97864.28;;;1.33;100.00
3960;BME280;1994;48.640;8.894;2023-02-14T00:20:25;97859.19;;;1.33;100.00
3960;BME280;1994;48.640;8.894;2023-02-14T00:22:52;97860.81;;;1.34;100.00
3960;BME280;1994;48.640;8.894;2023-02-14T00:25:21;97860.38;;;1.29;100.00
3960;BME280;1994;48.640;8.894;2023-02-14T00:27:47;97860.69;;;1.26;100.00
3960;BME280;1994;48.640;8.894;2023-02-14T00:30:13;97851.38;;;1.06;100.00
3960;BME280;1994;48.640;8.894;2023-02-14T00:32:40;97848.81;;;1.06;100.00
3960;BME280;1994;48.640;8.894;2023-02-14T00:35:07;97847.88;;;1.07;100.00
3960;BME280;1994;48.640;8.894;2023-02-14T00:37:34;97847.75;;;0.99;100.00
3960;BME280;1994;48.640;8.894;2023-02-14T00:40:00;97841.97;;;0.97;100.00
3960;BME280;1994;48.640;8.894;2023-02-14T00:42:25;97837.97;;;1.04;100.00
3960;BME280;1994;48.640;8.894;2023-02-14T00:44:51;97839.81;;;1.02;100.00
3960;BME280;1994;48.640;8.894;2023-02-14T00:47:17;97826.69;;;1.06;100.00
3960;BME280;1994;48.640;8.894;2023-02-14T00:49:45;97835.53;;;0.93;100.00
3960;BME280;1994;48.640;8.894;2023-02-14T00:52:11;97835.38;;;0.94;100.00
3960;BME280;1994;48.640;8.894;2023-02-14T00:54:37;97837.66;;;0.88;100.00
3960;BME280;1994;48.640;8.894;2023-02-14T00:57:03;97836.03;;;0.87;100.00
3960;BME280;1994;48.640;8.894;2023-02-14T00:59:29;97846.41;;;0.95;100.00
3960;BME280;1994;48.640;8.894;2023-02-14T01:01:54;97848.81;;;1.06;100.00
3960;BME280;1994;48.640;8.894;2023-02-14T01:04:20;97843.84;;;1.14;100.00
3960;BME280;1994;48.640;8.894;2023-02-14T01:06:46;97848.94;;;1.14;100.00
3960;BME280;1994;48.640;8.894;2023-02-14T01:09:12;97848.69;;;1.17;100.00
3960;BME280;1994;48.640;8.894;2023-02-14T01:11:38;97850.72;;;1.04;100.00
3960;BME280;1994;48.640;8.894;2023-02-14T01:14:05;97851.91;;;1.09;100.00
3960;BME280;1994;48.640;8.894;2023-02-14T01:16:33;97852.44;;;1.03;100.00
3960;BME280;1994;48.640;8.894;2023-02-14T01:19:00;97849.50;;;1.08;100.00
3960;BME280;1994;48.640;8.894;2023-02-14T01:21:30;97851.13;;;1.09;100.00
3960;BME280;1994;48.640;8.894;2023-02-14T01:24:02;97846.69;;;1.01;100.00
3960;BME280;1994;48.640;8.894;2023-02-14T01:26:29;97841.00;;;0.98;100.00
3960;BME280;1994;48.640;8.894;2023-02-14T01:28:55;97842.50;;;0.91;100.00
3960;BME280;1994;48.640;8.894;2023-02-14T01:31:25;97843.56;;;0.88;100.00
3960;BME280;1994;48.640;8.894;2023-02-14T01:33:56;97841.53;;;0.92;100.00
3960;BME280;1994;48.640;8.894;2023-02-14T01:36:29;97841.13;;;0.87;100.00
3960;BME280;1994;48.640;8.894;2023-02-14T01:38:59;97849.47;;;0.79;100.00
3960;BME280;1994;48.640;8.894;2023-02-14T01:41:29;97843.53;;;0.69;100.00
3960;BME280;1994;48.640;8.894;2023-02-14T01:46:52;97841.25;;;0.76;100.00
3960;BME280;1994;48.640;8.894;2023-02-14T01:49:29;97835.47;;;0.74;100.00
3960;BME280;1994;48.640;8.894;2023-02-14T01:52:22;97850.47;;;0.58;100.00
3960;BME280;1994;48.640;8.894;2023-02-14T01:54:59;97854.53;;;0.70;100.00
3960;BME280;1994;48.640;8.894;2023-02-14T01:58:07;97860.97;;;0.74;100.00
3960;BME280;1994;48.640;8.894;2023-02-14T02:00:37;97846.22;;;0.77;100.00
3960;BME280;1994;48.640;8.894;2023-02-14T02:03:39;97853.63;;;0.80;100.00
3960;BME280;1994;48.640;8.894;2023-02-14T02:06:10;97856.72;;;0.84;100.00
3960;BME280;1994;48.640;8.894;2023-02-14T02:09:12;97851.09;;;0.90;100.00
3960;BME280;1994;48.640;8.894;2023-02-14T02:11:42;97843.84;;;0.95;100.00
3960;BME280;1994;48.640;8.894;2023-02-14T02:14:18;97842.50;;;0.91;100.00
3960;BME280;1994;48.640;8.894;2023-02-14T02:29:31;97841.13;;;0.87;99.33
3960;BME280;1994;48.640;8.894;2023-02-14T02:46:58;97838.13;;;0.63;97.15
3960;BME280;1994;48.640;8.894;2023-02-14T02:53:31;97834.59;;;0.45;97.25
3960;BME280;1994;48.640;8.894;2023-02-14T02:56:27;97833.47;;;0.38;98.14
3960;BME280;1994;48.640;8.894;2023-02-14T02:59:28;97829.22;;;0.48;97.95
3960;BME280;1994;48.640;8.894;2023-02-14T03:02:33;97830.59;;;0.52;97.96
3960;BME280;1994;48.640;8.894;2023-02-14T03:05:01;97831.25;;;0.54;97.52
3960;BME280;1994;48.640;8.894;2023-02-14T03:07:37;97833.31;;;0.60;96.73
3960;BME280;1994;48.640;8.894;2023-02-14T03:10:20;97832.19;;;0.53;96.54
3960;BME280;1994;48.640;8.894;2023-02-14T03:16:40;97827.09;;;0.53;96.98
3960;BME280;1994;48.640;8.894;2023-02-14T03:19:35;97827.63;;;0.47;97.65
3960;BME280;1994;48.640;8.894;2023-02-14T03:28:41;97823.47;;;0.46;98.86
3960;BME280;1994;48.640;8.894;2023-02-14T03:31:43;97817.69;;;0.44;99.05
3960;BME280;1994;48.640;8.894;2023-02-14T03:34:44;97826.25;;;0.43;99.43
3960;BME280;1994;48.640;8.894;2023-02-14T03:38:00;97823.03;;;0.31;99.34
3960;BME280;1994;48.640;8.894;2023-02-14T03:40:42;97829.75;;;0.42;99.41
3960;BME280;1994;48.640;8.894;2023-02-14T03:43:14;97826.25;;;0.43;98.88
3960;BME280;1994;48.640;8.894;2023-02-14T03:45:47;97828.13;;;0.41;98.52
3960;BME280;1994;48.640;8.894;2023-02-14T03:48:19;97830.25;;;0.36;98.63
3960;BME280;1994;48.640;8.894;2023-02-14T03:50:47;97834.28;;;0.29;98.98
3960;BME280;1994;48.640;8.894;2023-02-14T03:53:21;97834.00;;;0.32;98.77
3960;BME280;1994;48.640;8.894;2023-02-14T03:58:47;97838.00;;;-0.05;100.00
3960;BME280;1994;48.640;8.894;2023-02-14T04:02:07;97843.53;;;0.00;100.00
3960;BME280;1994;48.640;8.894;2023-02-14T04:04:17;97839.66;;;0.05;100.00
3960;BME280;1994;48.640;8.894;2023-02-14T04:06:44;97828.25;;;0.00;100.00
3960;BME280;1994;48.640;8.894;2023-02-14T04:09:09;97829.66;;;-0.07;100.00
3960;BME280;1994;48.640;8.894;2023-02-14T04:11:35;97821.78;;;-0.04;100.00
3960;BME280;1994;48.640;8.894;2023-02-14T04:14:03;97831.56;;;-0.09;100.00
3960;BME280;1994;48.640;8.894;2023-02-14T04:16:30;97830.84;;;-0.11;100.00
3960;BME280;1994;48.640;8.894;2023-02-14T04:19:16;97825.75;;;-0.11;100.00
3960;BME280;1994;48.640;8.894;2023-02-14T04:21:49;97821.78;;;-0.04;100.00
3960;BME280;1994;48.640;8.894;2023-02-14T04:24:15;97825.75;;;-0.11;100.00
3960;BME280;1994;48.640;8.894;2023-02-14T04:26:41;97818.38;;;-0.14;100.00
3960;BME280;1994;48.640;8.894;2023-02-14T04:29:19;97832.47;;;-0.10;100.00
3960;BME280;1994;48.640;8.894;2023-02-14T04:31:46;97828.06;;;-0.08;100.00
3960;BME280;1994;48.640;8.894;2023-02-14T04:34:12;97830.59;;;-0.08;100.00
3960;BME280;1994;48.640;8.894;2023-02-14T04:36:38;97831.31;;;-0.27;100.00
3960;BME280;1994;48.640;8.894;2023-02-14T04:39:03;97824.84;;;-0.31;100.00
3960;BME280;1994;48.640;8.894;2023-02-14T04:41:29;97820.47;;;-0.49;100.00
3960;BME280;1994;48.640;8.894;2023-02-14T04:43:55;97815.94;;;-0.45;100.00
3960;BME280;1994;48.640;8.894;2023-02-14T04:46:21;97819.03;;;-0.42;100.00
3960;BME280;1994;48.640;8.894;2023-02-14T04:48:46;97824.06;;;-0.31;100.00
3960;BME280;1994;48.640;8.894;2023-02-14T04:51:12;97816.28;;;-0.29;99.09
3960;BME280;1994;48.640;8.894;2023-02-14T04:53:38;97819.50;;;-0.28;99.15
3960;BME280;1994;48.640;8.894;2023-02-14T04:56:08;97815.47;;;-0.30;98.52
3960;BME280;1994;48.640;8.894;2023-02-14T04:58:35;97810.63;;;-0.33;98.46
3960;BME280;1994;48.640;8.894;2023-02-14T05:01:01;97820.81;;;-0.33;98.09
3960;BME280;1994;48.640;8.894;2023-02-14T05:03:26;97814.00;;;-0.32;97.25
3960;BME280;1994;48.640;8.894;2023-02-14T05:05:52;97817.84;;;-0.38;97.24
3960;BME280;1994;48.640;8.894;2023-02-14T05:08:18;97817.84;;;-0.38;97.27
3960;BME280;1994;48.640;8.894;2023-02-14T05:10:43;97818.31;;;-0.44;97.10
3960;BME280;1994;48.640;8.894;2023-02-14T05:13:09;97816.47;;;-0.42;97.17
3960;BME280;1994;48.640;8.894;2023-02-14T05:15:35;97811.38;;;-0.42;97.67
3960;BME280;1994;48.640;8.894;2023-02-14T05:18:00;97806.84;;;-0.38;97.62
3960;BME280;1994;48.640;8.894;2023-02-14T05:20:30;97809.28;;;-0.37;97.17
3960;BME280;1994;48.640;8.894;2023-02-14T05:22:56;97808.47;;;-0.38;97.04
3960;BME280;1994;48.640;8.894;2023-02-14T05:25:24;97809.50;;;-0.40;97.13
3960;BME280;1994;48.640;8.894;2023-02-14T05:27:50;97811.69;;;-0.36;96.99
3960;BME280;1994;48.640;8.894;2023-02-14T05:30:16;97807.41;;;-0.35;96.88
3960;BME280;1994;48.640;8.894;2023-02-14T05:32:41;97803.69;;;-0.31;96.84
3960;BME280;1994;48.640;8.894;2023-02-14T05:35:07;97817.91;;;-0.28;96.56
3960;BME280;1994;48.640;8.894;2023-02-14T05:37:33;97813.59;;;-0.28;96.11
3960;BME280;1994;48.640;8.894;2023-02-14T05:39:58;97815.47;;;-0.30;95.80
3960;BME280;1994;48.640;8.894;2023-02-14T05:42:24;97818.69;;;-0.28;95.62
3960;BME280;1994;48.640;8.894;2023-02-14T05:44:50;97823.78;;;-0.28;95.82
3960;BME280;1994;48.640;8.894;2023-02-14T05:47:15;97827.53;;;-0.32;95.28
3960;BME280;1994;48.640;8.894;2023-02-14T05:49:41;97824.28;;;-0.34;94.88
3960;BME280;1994;48.640;8.894;2023-02-14T05:52:07;97826.84;;;-0.34;94.35
3960;BME280;1994;48.640;8.894;2023-02-14T05:54:33;97833.34;;;-0.41;93.79
3960;BME280;1994;48.640;8.894;2023-02-14T05:56:58;97833.13;;;-0.38;94.09
3960;BME280;1994;48.640;8.894;2023-02-14T05:59:24;97831.25;;;-0.36;94.08
3960;BME280;1994;48.640;8.894;2023-02-14T06:01:50;97827.59;;;-0.43;94.00
3960;BME280;1994;48.640;8.894;2023-02-14T06:04:15;97830.81;;;-0.41;94.06
3960;BME280;1994;48.640;8.894;2023-02-14T06:06:41;97829.00;;;-0.50;94.62
3960;BME280;1994;48.640;8.894;2023-02-14T06:09:07;97836.56;;;-0.39;94.39
3960;BME280;1994;48.640;8.894;2023-02-14T06:11:33;97834.03;;;-0.39;94.03
3960;BME280;1994;48.640;8.894;2023-02-14T06:13:58;97832.44;;;-0.40;94.29
3960;BME280;1994;48.640;8.894;2023-02-14T06:16:24;97828.50;;;-0.44;94.47
3960;BME280;1994;48.640;8.894;2023-02-14T06:18:50;97829.31;;;-0.43;94.45
3960;BME280;1994;48.640;8.894;2023-02-14T06:21:16;97833.34;;;-0.41;94.11
3960;BME280;1994;48.640;8.894;2023-02-14T06:23:41;97836.56;;;-0.39;94.42
3960;BME280;1994;48.640;8.894;2023-02-14T06:26:07;97831.44;;;-0.48;94.93
3960;BME280;1994;48.640;8.894;2023-02-14T06:28:33;97834.97;;;-0.40;94.89
3960;BME280;1994;48.640;8.894;2023-02-14T06:30:58;97842.09;;;-0.34;95.42
3960;BME280;1994;48.640;8.894;2023-02-14T06:33:24;97839.88;;;-0.28;95.42
3960;BME280;1994;48.640;8.894;2023-02-14T06:35:53;97835.09;;;-0.21;95.77
3960;BME280;1994;48.640;8.894;2023-02-14T06:38:18;97839.94;;;-0.18;95.76
3960;BME280;1994;48.640;8.894;2023-02-14T06:40:44;97841.31;;;-0.14;96.22
3960;BME280;1994;48.640;8.894;2023-02-14T06:43:10;97841.03;;;-0.11;95.81
3960;BME280;1994;48.640;8.894;2023-02-14T06:45:36;97847.06;;;-0.12;96.78
3960;BME280;1994;48.640;8.894;2023-02-14T06:48:01;97847.50;;;-0.07;96.50
3960;BME280;1994;48.640;8.894;2023-02-14T06:50:28;97848.63;;;0.00;96.39
3960;BME280;1994;48.640;8.894;2023-02-14T06:52:54;97852.34;;;-0.04;97.10
3960;BME280;1994;48.640;8.894;2023-02-14T06:55:20;97847.41;;;0.04;97.22
3960;BME280;1994;48.640;8.894;2023-02-14T06:57:45;97845.50;;;0.17;97.58
3960;BME280;1994;48.640;8.894;2023-02-14T07:00:12;97851.16;;;0.30;97.01
3960;BME280;1994;48.640;8.894;2023-02-14T07:02:39;97850.06;;;0.23;96.71
3960;BME280;1994;48.640;8.894;2023-02-14T07:05:05;97849.97;;;0.04;97.92
3960;BME280;1994;48.640;8.894;2023-02-14T07:07:31;97850.97;;;-0.08;98.20
3960;BME280;1994;48.640;8.894;2023-02-14T07:09:56;97845.88;;;-0.08;98.01
3960;BME280;1994;48.640;8.894;2023-02-14T07:12:22;97841.91;;;-0.01;97.80
3960;BME280;1994;48.640;8.894;2023-02-14T07:14:48;97839.53;;;0.07;97.42
3960;BME280;1994;48.640;8.894;2023-02-14T07:17:13;97835.13;;;0.09;97.63
3960;BME280;1994;48.640;8.894;2023-02-14T07:19:39;97837.06;;;-0.04;98.49
3960;BME280;1994;48.640;8.894;2023-02-14T07:22:05;97836.13;;;-0.03;99.05
3960;BME280;1994;48.640;8.894;2023-02-14T07:24:31;97833.75;;;0.05;98.97
3960;BME280;1994;48.640;8.894;2023-02-14T07:26:56;97830.84;;;0.49;100.00
3960;BME280;1994;48.640;8.894;2023-02-14T07:29:22;97837.72;;;0.67;99.92
3960;BME280;1994;48.640;8.894;2023-02-14T07:31:48;97840.88;;;0.90;98.25
3960;BME280;1994;48.640;8.894;2023-02-14T07:34:14;97831.63;;;0.89;96.88
3960;BME280;1994;48.640;8.894;2023-02-14T07:36:40;97831.22;;;1.03;96.75
3960;BME280;1994;48.640;8.894;2023-02-14T07:39:06;97831.63;;;1.46;96.92
3960;BME280;1994;48.640;8.894;2023-02-14T07:41:31;97826.13;;;1.50;96.06
3960;BME280;1994;48.640;8.894;2023-02-14T07:43:57;97840.38;;;1.53;95.07
3960;BME280;1994;48.640;8.894;2023-02-14T07:46:23;97834.34;;;1.54;94.81
3960;BME280;1994;48.640;8.894;2023-02-14T07:48:48;97832.28;;;1.67;93.76
3960;BME280;1994;48.640;8.894;2023-02-14T07:51:16;97830.69;;;1.47;93.59
3960;BME280;1994;48.640;8.894;2023-02-14T07:53:42;97827.75;;;1.42;94.12
3960;BME280;1994;48.640;8.894;2023-02-14T07:56:08;97831.22;;;1.41;93.98
3960;BME280;1994;48.640;8.894;2023-02-14T07:58:34;97836.06;;;1.63;93.79
3960;BME280;1994;48.640;8.894;2023-02-14T08:01:00;97828.28;;;1.55;93.59
3960;BME280;1994;48.640;8.894;2023-02-14T08:03:25;97825.06;;;1.53;94.17
3960;BME280;1994;48.640;8.894;2023-02-14T08:05:51;97833.63;;;1.71;93.36
3960;BME280;1994;48.640;8.894;2023-02-14T08:08:28;97833.88;;;1.68;93.54
3960;BME280;1994;48.640;8.894;2023-02-14T08:10:54;97827.88;;;2.15;92.34
3960;BME280;1994;48.640;8.894;2023-02-14T08:13:20;97819.44;;;2.86;89.50
3960;BME280;1994;48.640;8.894;2023-02-14T08:15:46;97825.41;;;3.39;85.41
3960;BME280;1994;48.640;8.894;2023-02-14T08:18:39;97829.81;;;4.23;82.67
3960;BME280;1994;48.640;8.894;2023-02-14T08:21:08;97820.53;;;4.55;80.26
3960;BME280;1994;48.640;8.894;2023-02-14T08:23:35;97823.28;;;5.27;77.57
3960;BME280;1994;48.640;8.894;2023-02-14T08:26:02;97820.22;;;5.32;76.65
3960;BME280;1994;48.640;8.894;2023-02-14T08:28:28;97820.47;;;6.33;73.47
3960;BME280;1994;48.640;8.894;2023-02-14T08:30:54;97817.16;;;6.93;71.13
3960;BME280;1994;48.640;8.894;2023-02-14T08:33:20;97819.19;;;6.29;71.97
3960;BME280;1994;48.640;8.894;2023-02-14T08:35:47;97815.38;;;6.09;74.01
3960;BME280;1994;48.640;8.894;2023-02-14T08:38:13;97823.00;;;6.49;73.16
3960;BME280;1994;48.640;8.894;2023-02-14T08:40:38;97820.00;;;6.76;71.72
3960;BME280;1994;48.640;8.894;2023-02-14T08:43:05;97814.53;;;7.24;70.42
3960;BME280;1994;48.640;8.894;2023-02-14T08:45:32;97814.41;;;6.95;70.15
3960;BME280;1994;48.640;8.894;2023-02-14T08:48:09;97816.19;;;7.25;69.42
3960;BME280;1994;48.640;8.894;2023-02-14T08:50:35;97811.13;;;7.09;70.02
3960;BME280;1994;48.640;8.894;2023-02-14T08:53:10;97814.28;;;7.64;68.49
3960;BME280;1994;48.640;8.894;2023-02-14T08:55:37;97810.03;;;6.73;69.23
3960;BME280;1994;48.640;8.894;2023-02-14T08:58:03;97815.59;;;6.54;71.17
3960;BME280;1994;48.640;8.894;2023-02-14T09:00:29;97815.13;;;7.79;68.18
3960;BME280;1994;48.640;8.894;2023-02-14T09:02:55;97808.19;;;7.94;66.53
3960;BME280;1994;48.640;8.894;2023-02-14T09:05:21;97810.91;;;8.44;66.39
3960;BME280;1994;48.640;8.894;2023-02-14T09:07:50;97821.97;;;8.67;63.71
3960;BME280;1994;48.640;8.894;2023-02-14T09:10:17;97815.88;;;8.89;63.44
3960;BME280;1994;48.640;8.894;2023-02-14T09:12:44;97819.47;;;9.72;62.42
3960;BME280;1994;48.640;8.894;2023-02-14T09:15:10;97819.28;;;10.01;59.94
3960;BME280;1994;48.640;8.894;2023-02-14T09:17:37;97810.44;;;9.89;61.56
3960;BME280;1994;48.640;8.894;2023-02-14T09:20:05;97807.66;;;10.45;59.60
3960;BME280;1994;48.640;8.894;2023-02-14T09:22:32;97811.75;;;9.99;60.79
3960;BME280;1994;48.640;8.894;2023-02-14T09:24:59;97796.25;;;10.80;58.19
3960;BME280;1994;48.640;8.894;2023-02-14T09:27:25;97805.84;;;10.80;58.01
3960;BME280;1994;48.640;8.894;2023-02-14T09:29:51;97801.16;;;11.09;57.43
3960;BME280;1994;48.640;8.894;2023-02-14T09:32:17;97804.78;;;11.28;55.45
3960;BME280;1994;48.640;8.894;2023-02-14T09:34:43;97806.00;;;9.34;60.02
3960;BME280;1994;48.640;8.894;2023-02-14T09:37:10;97794.91;;;10.44;59.14
3960;BME280;1994;48.640;8.894;2023-02-14T09:39:37;97794.38;;;11.08;56.93
3960;BME280;1994;48.640;8.894;2023-02-14T09:42:21;97798.47;;;11.89;54.56
3960;BME280;1994;48.640;8.894;2023-02-14T09:50:36;97797.22;;;11.46;55.45
3960;BME280;1994;48.640;8.894;2023-02-14T09:53:19;97789.94;;;12.65;52.72
3960;BME280;1994;48.640;8.894;2023-02-14T09:56:16;97789.66;;;12.03;54.30
3960;BME280;1994;48.640;8.894;2023-02-14T10:01:45;97779.94;;;12.62;53.64
3960;BME280;1994;48.640;8.894;2023-02-14T10:04:40;97782.25;;;13.27;51.85
3960;BME280;1994;48.640;8.894;2023-02-14T10:07:26;97779.69;;;14.25;49.64
3960;BME280;1994;48.640;8.894;2023-02-14T10:10:20;97772.88;;;14.78;47.52
3960;BME280;1994;48.640;8.894;2023-02-14T10:13:29;97776.50;;;14.23;48.14
3960;BME280;1994;48.640;8.894;2023-02-14T10:16:04;97771.44;;;15.11;47.88
3960;BME280;1994;48.640;8.894;2023-02-14T10:21:44;97776.94;;;14.56;46.85
3960;BME280;1994;48.640;8.894;2023-02-14T10:24:20;97763.88;;;14.74;48.54
3960;BME280;1994;48.640;8.894;2023-02-14T10:26:49;97758.66;;;14.74;48.43
3960;BME280;1994;48.640;8.894;2023-02-14T10:29:18;97765.38;;;15.70;47.22
3960;BME280;1994;48.640;8.894;2023-02-14T10:31:55;97761.28;;;16.20;44.47
3960;BME280;1994;48.640;8.894;2023-02-14T10:34:36;97762.63;;;16.34;43.76
3960;BME280;1994;48.640;8.894;2023-02-14T10:40:39;97765.72;;;16.19;44.68
3960;BME280;1994;48.640;8.894;2023-02-14T10:46:09;97750.66;;;17.00;42.43
3960;BME280;1994;48.640;8.894;2023-02-14T10:48:52;97755.00;;;17.23;41.72
3960;BME280;1994;48.640;8.894;2023-02-14T10:54:25;97741.63;;;16.80;42.74
3960;BME280;1994;48.640;8.894;2023-02-14T10:57:01;97735.84;;;17.06;41.92
3960;BME280;1994;48.640;8.894;2023-02-14T11:02:13;97734.09;;;16.55;42.60
3960;BME280;1994;48.640;8.894;2023-02-14T11:04:47;97726.47;;;16.54;43.02
3960;BME280;1994;48.640;8.894;2023-02-14T11:07:16;97727.63;;;16.35;43.01
3960;BME280;1994;48.640;8.894;2023-02-14T11:09:42;97728.34;;;16.70;43.33
3960;BME280;1994;48.640;8.894;2023-02-14T11:12:08;97727.78;;;17.24;41.80
3960;BME280;1994;48.640;8.894;2023-02-14T11:14:38;97717.97;;;17.64;41.49
3960;BME280;1994;48.640;8.894;2023-02-14T11:17:28;97717.78;;;17.37;41.13
3960;BME280;1994;48.640;8.894;2023-02-14T11:22:46;97717.94;;;17.97;40.60
3960;BME280;1994;48.640;8.894;2023-02-14T11:25:25;97707.44;;;17.97;40.63
3960;BME280;1994;48.640;8.894;2023-02-14T11:28:09;97708.06;;;17.49;41.16
3960;BME280;1994;48.640;8.894;2023-02-14T11:30:42;97702.88;;;17.87;40.86
3960;BME280;1994;48.640;8.894;2023-02-14T11:33:42;97694.59;;;17.95;40.13
3960;BME280;1994;48.640;8.894;2023-02-14T11:36:16;97695.97;;;18.36;41.04
3960;BME280;1994;48.640;8.894;2023-02-14T11:38:53;97693.94;;;18.05;40.19
3960;BME280;1994;48.640;8.894;2023-02-14T11:41:20;97685.25;;;18.21;39.96
3960;BME280;1994;48.640;8.894;2023-02-14T11:44:15;97687.25;;;18.14;40.60
3960;BME280;1994;48.640;8.894;2023-02-14T11:46:47;97669.16;;;18.34;40.06
3960;BME280;1994;48.640;8.894;2023-02-14T11:49:33;97667.38;;;18.61;39.90
3960;BME280;1994;48.640;8.894;2023-02-14T11:52:08;97667.06;;;18.84;39.05
3960;BME280;1994;48.640;8.894;2023-02-14T11:54:48;97675.63;;;19.22;39.22
3960;BME280;1994;48.640;8.894;2023-02-14T11:57:28;97672.91;;;19.44;37.71
3960;BME280;1994;48.640;8.894;2023-02-14T11:59:58;97670.75;;;18.83;39.34
3960;BME280;1994;48.640;8.894;2023-02-14T12:02:45;97671.16;;;18.27;40.45
3960;BME280;1994;48.640;8.894;2023-02-14T12:07:58;97667.66;;;18.00;40.83
3960;BME280;1994;48.640;8.894;2023-02-14T12:10:32;97661.88;;;16.99;42.54
3960;BME280;1994;48.640;8.894;2023-02-14T12:15:50;97652.25;;;17.49;42.85
3960;BME280;1994;48.640;8.894;2023-02-14T12:25:19;97649.00;;;16.81;44.35
3960;BME280;1994;48.640;8.894;2023-02-14T12:30:33;97642.88;;;16.08;45.47
3960;BME280;1994;48.640;8.894;2023-02-14T12:32:59;97628.97;;;16.19;44.78
3960;BME280;1994;48.640;8.894;2023-02-14T12:35:54;97628.56;;;15.99;46.63
3960;BME280;1994;48.640;8.894;2023-02-14T12:41:56;97624.91;;;16.79;44.83
3960;BME280;1994;48.640;8.894;2023-02-14T12:50:48;97624.22;;;16.72;43.72
3960;BME280;1994;48.640;8.894;2023-02-14T13:02:20;97600.25;;;16.47;43.58
3960;BME280;1994;48.640;8.894;2023-02-14T13:05:11;97590.06;;;15.83;44.41
3960;BME280;1994;48.640;8.894;2023-02-14T13:13:56;97595.38;;;16.67;43.04
3960;BME280;1994;48.640;8.894;2023-02-14T13:16:56;97584.91;;;16.67;43.30
3960;BME280;1994;48.640;8.894;2023-02-14T13:22:21;97585.88;;;15.82;45.30
3960;BME280;1994;48.640;8.894;2023-02-14T13:24:55;97570.78;;;15.72;45.98
3960;BME280;1994;48.640;8.894;2023-02-14T13:27:36;97579.13;;;15.58;46.13
3960;BME280;1994;48.640;8.894;2023-02-14T13:30:24;97568.31;;;15.54;45.16
3960;BME280;1994;48.640;8.894;2023-02-14T13:32:52;97573.19;;;15.51;44.94
3960;BME280;1994;48.640;8.894;2023-02-14T13:35:22;97573.31;;;15.56;45.99
3960;BME280;1994;48.640;8.894;2023-02-14T13:38:02;97560.84;;;15.58;45.89
3960;BME280;1994;48.640;8.894;2023-02-14T13:40:30;97566.38;;;15.38;44.32
3960;BME280;1994;48.640;8.894;2023-02-14T13:42:59;97562.31;;;15.31;45.59
3960;BME280;1994;48.640;8.894;2023-02-14T13:48:18;97554.69;;;15.64;45.58
3960;BME280;1994;48.640;8.894;2023-02-14T13:51:04;97557.28;;;15.18;45.84
3960;BME280;1994;48.640;8.894;2023-02-14T13:53:47;97556.06;;;15.09;46.03
3960;BME280;1994;48.640;8.894;2023-02-14T13:58:54;97556.63;;;15.11;47.04
3960;BME280;1994;48.640;8.894;2023-02-14T14:01:40;97553.78;;;15.01;46.63
3960;BME280;1994;48.640;8.894;2023-02-14T14:17:34;97548.50;;;14.55;47.37
3960;BME280;1994;48.640;8.894;2023-02-14T14:22:55;97552.78;;;14.49;49.38
3960;BME280;1994;48.640;8.894;2023-02-14T14:27:58;97542.50;;;14.25;49.77
3960;BME280;1994;48.640;8.894;2023-02-14T14:30:31;97545.06;;;14.13;50.34
3960;BME280;1994;48.640;8.894;2023-02-14T14:33:33;97540.22;;;13.99;50.78
3960;BME280;1994;48.640;8.894;2023-02-14T14:36:05;97540.38;;;13.86;51.56
3960;BME280;1994;48.640;8.894;2023-02-14T14:38:33;97538.13;;;13.89;52.13
3960;BME280;1994;48.640;8.894;2023-02-14T14:41:00;97539.97;;;13.71;52.66
3960;BME280;1994;48.640;8.894;2023-02-14T14:43:34;97537.81;;;13.68;53.13
3960;BME280;1994;48.640;8.894;2023-02-14T14:46:02;97530.22;;;13.66;53.91
3960;BME280;1994;48.640;8.894;2023-02-14T14:48:48;97533.47;;;13.62;54.09
3960;BME280;1994;48.640;8.894;2023-02-14T14:51:27;97539.25;;;13.46;54.05
3960;BME280;1994;48.640;8.894;2023-02-14T14:56:36;97535.69;;;13.40;55.10
3960;BME280;1994;48.640;8.894;2023-02-14T14:59:28;97535.69;;;13.40;55.46
3960;BME280;1994;48.640;8.894;2023-02-14T15:01:55;97535.34;;;13.37;56.01
3960;BME280;1994;48.640;8.894;2023-02-14T15:04:33;97539.00;;;13.29;55.68
3960;BME280;1994;48.640;8.894;2023-02-14T15:07:35;97538.78;;;13.13;56.13
3960;BME280;1994;48.640;8.894;2023-02-14T15:10:03;97546.44;;;13.08;56.34
3960;BME280;1994;48.640;8.894;2023-02-14T15:12:45;97542.63;;;13.10;56.27
3960;BME280;1994;48.640;8.894;2023-02-14T15:15:29;97540.06;;;13.04;56.74
3960;BME280;1994;48.640;8.894;2023-02-14T15:17:55;97542.09;;;13.02;57.13
3960;BME280;1994;48.640;8.894;2023-02-14T15:20:22;97532.22;;;12.86;57.42
3960;BME280;1994;48.640;8.894;2023-02-14T15:22:51;97526.03;;;12.80;57.44
3960;BME280;1994;48.640;8.894;2023-02-14T15:25:22;97527.09;;;12.73;57.44
3960;BME280;1994;48.640;8.894;2023-02-14T15:27:50;97529.91;;;12.71;57.47
3960;BME280;1994;48.640;8.894;2023-02-14T15:32:53;97528.47;;;12.51;57.27
3960;BME280;1994;48.640;8.894;2023-02-14T15:35:30;97542.47;;;12.50;57.46
3960;BME280;1994;48.640;8.894;2023-02-14T15:37:59;97539.69;;;12.45;57.77
3960;BME280;1994;48.640;8.894;2023-02-14T15:40:29;97537.38;;;12.37;58.15
3960;BME280;1994;48.640;8.894;2023-02-14T15:49:08;97547.06;;;12.17;58.59
3960;BME280;1994;48.640;8.894;2023-02-14T15:51:36;97539.91;;;12.12;58.50
3960;BME280;1994;48.640;8.894;2023-02-14T15:54:22;97541.97;;;12.04;58.81
3960;BME280;1994;48.640;8.894;2023-02-14T15:56:51;97545.59;;;11.96;58.52
3960;BME280;1994;48.640;8.894;2023-02-14T15:59:26;97539.59;;;11.96;59.02
3960;BME280;1994;48.640;8.894;2023-02-14T16:04:43;97533.28;;;11.79;59.65
3960;BME280;1994;48.640;8.894;2023-02-14T16:07:26;97538.88;;;11.76;59.79
3960;BME280;1994;48.640;8.894;2023-02-14T16:15:38;97533.34;;;11.53;60.04
3960;BME280;1994;48.640;8.894;2023-02-14T16:18:37;97535.38;;;11.38;60.34
3960;BME280;1994;48.640;8.894;2023-02-14T16:21:22;97532.63;;;11.33;60.62
3960;BME280;1994;48.640;8.894;2023-02-14T16:26:43;97541.22;;;11.14;61.20
3960;BME280;1994;48.640;8.894;2023-02-14T16:29:15;97545.81;;;10.99;62.27
3960;BME280;1994;48.640;8.894;2023-02-14T16:31:48;97536.69;;;10.90;62.56
3960;BME280;1994;48.640;8.894;2023-02-14T16:34:15;97543.44;;;10.84;62.64